Time;durP1;ratioP1;P1;durP2;ratioP2;P2;SDS_P1;SDS_P2;PMS_P1;PMS_P2;Temp;Humidity;BMP_temperature;BMP_pressure;BME280_temperature;BME280_humidity;BME280_pressure;Samples;Min_cycle;Max_cycle;Signal;HPM_P1;HPM_P2
2022/01/23 00:03:45;;;;;;;4.30;0.75;;;;;;;6.94;34.30;93375.09;4973590;28;20453;-89
2022/01/23 00:06:25;;;;;;;5.00;0.75;;;;;;;7.17;34.27;93414.94;4980603;28;20356;-90
2022/01/23 00:09:02;;;;;;;7.07;0.90;;;;;;;7.00;33.92;93383.75;4964496;28;20030;-90
2022/01/23 00:11:43;;;;;;;1.15;0.73;;;;;;;6.88;34.21;93371.63;4978439;28;20057;-89
2022/01/23 00:17:20;;;;;;;1.98;0.60;;;;;;;6.92;33.77;93364.13;4963556;28;20042;-89
2022/01/23 00:20:00;;;;;;;3.67;0.70;;;;;;;6.92;33.88;93376.38;5010190;28;20065;-90
2022/01/23 00:22:39;;;;;;;3.95;0.80;;;;;;;7.07;34.22;93407.81;4997302;28;20034;-89
2022/01/23 00:30:44;;;;;;;5.85;0.98;;;;;;;7.01;34.28;93416.56;4992955;28;20042;-89
2022/01/23 00:33:11;;;;;;;2.20;0.73;;;;;;;6.83;34.20;93400.19;4994694;28;20030;-90
2022/01/23 00:35:41;;;;;;;5.00;0.90;;;;;;;6.81;34.49;93411.88;4942339;28;20165;-90
2022/01/23 00:38:09;;;;;;;2.00;0.88;;;;;;;6.73;34.94;93413.06;4992407;28;20033;-90
2022/01/23 00:40:50;;;;;;;4.05;1.70;;;;;;;6.81;36.96;93419.69;5008366;28;20040;-89
2022/01/23 00:43:30;;;;;;;7.45;1.70;;;;;;;6.35;37.64;93362.59;4981988;28;20042;-90
2022/01/23 00:51:47;;;;;;;3.95;1.50;;;;;;;5.84;38.36;93367.75;5007976;28;19913;-90
2022/01/23 00:54:24;;;;;;;2.45;1.10;;;;;;;6.01;38.34;93417.19;4998939;28;20471;-89
2022/01/23 00:57:02;;;;;;;2.33;0.77;;;;;;;5.87;38.35;93409.88;4996955;28;20032;-90
2022/01/23 00:59:41;;;;;;;3.15;0.75;;;;;;;5.40;38.49;93366.72;4985469;28;20379;-90
2022/01/23 01:02:11;;;;;;;2.58;0.63;;;;;;;5.72;38.14;93432.00;4976623;28;20064;-89
2022/01/23 01:04:52;;;;;;;1.55;0.50;;;;;;;5.46;37.72;93396.19;4979000;28;20375;-90
2022/01/23 01:07:20;;;;;;;1.02;0.65;;;;;;;5.25;37.73;93369.06;4977275;28;20104;-89
2022/01/23 01:10:03;;;;;;;;;;;;;;;;;;;;;
2022/01/23 01:12:45;;;;;;;2.88;0.65;;;;;;;5.14;38.18;93365.47;4991216;28;20034;-89
2022/01/23 01:32:59;;;;;;;3.63;1.40;;;;;;;5.37;38.46;93372.41;4975459;28;20045;-90
2022/01/23 01:35:54;;;;;;;3.22;1.40;;;;;;;5.72;38.92;93436.38;4979563;28;20101;-89
2022/01/23 01:38:26;;;;;;;1.95;0.95;;;;;;;5.65;39.24;93436.53;4978411;28;20542;-90
2022/01/23 01:43:58;;;;;;;2.60;1.25;;;;;;;5.24;40.62;93409.00;4967579;28;20495;-90
2022/01/23 01:46:45;;;;;;;2.80;1.58;;;;;;;5.04;41.68;93397.19;4980767;28;20038;-90
2022/01/23 01:49:28;;;;;;;4.43;1.58;;;;;;;4.69;41.34;93361.75;4962262;28;20486;-89
2022/01/23 01:51:59;;;;;;;5.88;1.50;;;;;;;4.50;41.69;93345.53;4946941;28;20038;-89
2022/01/23 01:54:27;;;;;;;7.68;1.60;;;;;;;4.53;41.94;93365.81;4977463;28;20085;-88
2022/01/23 01:57:06;;;;;;;5.77;1.53;;;;;;;4.80;42.14;93418.00;4980754;28;20018;-89
2022/01/23 02:00:00;;;;;;;10.60;1.27;;;;;;;4.46;42.53;93377.31;4974970;28;20037;-90
2022/01/23 02:03:16;;;;;;;;;;;;;;;;;;;;;
2022/01/23 02:08:44;;;;;;;6.00;1.67;;;;;;;4.32;43.41;93402.69;4976924;28;20042;-89
2022/01/23 02:11:22;;;;;;;3.50;1.17;;;;;;;4.22;42.58;93345.44;4961306;28;20041;-89
2022/01/23 02:51:59;;;;;;;2.92;1.20;;;;;;;3.26;46.55;93354.03;4963266;28;20042;-90
2022/01/23 02:57:56;;;;;;;4.53;1.20;;;;;;;3.18;46.32;93350.97;4961736;28;20098;-90
2022/01/23 03:00:34;;;;;;;3.67;1.00;;;;;;;3.31;46.90;93374.06;4962160;28;20369;-89
2022/01/23 03:03:11;;;;;;;5.32;1.60;;;;;;;3.11;46.87;93340.72;4974262;28;20038;-89
2022/01/23 03:09:22;;;;;;;3.53;1.45;;;;;;;3.41;47.63;93400.22;4961206;28;20030;-89
2022/01/23 03:12:06;;;;;;;4.07;1.40;;;;;;;3.47;47.28;93414.88;4968690;28;20046;-89
2022/01/23 03:14:48;;;;;;;4.57;1.25;;;;;;;2.94;47.71;93331.97;4966919;28;20062;-89
2022/01/23 03:26:24;;;;;;;2.33;1.30;;;;;;;3.23;48.66;93400.25;4966485;28;20129;-88
2022/01/23 03:34:30;;;;;;;6.63;1.27;;;;;;;2.66;48.93;93321.16;4955671;28;20126;-89
2022/01/23 03:37:00;;;;;;;1.67;0.93;;;;;;;2.91;48.85;93364.22;4987266;28;20042;-89
2022/01/23 03:39:47;;;;;;;3.88;1.35;;;;;;;2.53;49.28;93310.19;4954124;28;20034;-89
2022/01/23 03:42:24;;;;;;;2.97;1.10;;;;;;;2.77;49.73;93365.38;4973081;28;20085;-89
2022/01/23 03:47:38;;;;;;;2.95;1.20;;;;;;;2.44;49.96;93322.59;4975257;28;20042;-88
2022/01/23 03:50:17;;;;;;;2.45;1.23;;;;;;;2.38;50.17;93332.00;4955423;28;20050;-89
2022/01/23 03:52:53;;;;;;;3.95;1.38;;;;;;;2.40;50.13;93340.31;4960814;28;20022;-89
2022/01/23 03:55:23;;;;;;;3.08;1.42;;;;;;;2.61;49.58;93384.84;4974560;28;20061;-89
2022/01/23 03:57:57;;;;;;;2.85;1.20;;;;;;;2.30;49.84;93332.28;4960047;28;20102;-89
2022/01/23 04:00:42;;;;;;;11.15;3.08;;;;;;;2.24;50.25;93326.16;4978544;28;20053;-89
2022/01/23 04:03:19;;;;;;;11.10;4.30;;;;;;;2.49;50.00;93358.91;4981386;28;20048;-90
2022/01/23 04:05:57;;;;;;;14.95;5.90;;;;;;;2.40;49.99;93339.53;4977149;28;20038;-89
2022/01/23 04:08:41;;;;;;;12.50;4.03;;;;;;;2.58;50.22;93372.34;4979100;28;20041;-88
2022/01/23 04:11:12;;;;;;;10.43;3.42;;;;;;;2.77;50.31;93412.72;4976912;28;20041;-89
2022/01/23 04:14:09;;;;;;;7.88;3.00;;;;;;;2.56;50.87;93398.41;4993004;28;20041;-89
2022/01/23 04:19:36;;;;;;;7.85;2.45;;;;;;;2.11;51.32;93348.75;5010197;28;20034;-89
2022/01/23 04:33:41;;;;;;;11.52;3.92;;;;;;;2.28;51.86;93399.66;5009668;28;20490;-88
2022/01/23 04:45:20;;;;;;;6.45;1.70;;;;;;;2.08;51.93;93396.47;4994050;28;20129;-89
2022/01/23 04:48:51;;;;;;;5.82;1.63;;;;;;;1.79;52.42;93357.34;5013028;28;20040;-89
2022/01/23 04:59:38;;;;;;;8.68;3.65;;;;;;;2.11;53.43;93415.91;4995518;28;20045;-90
2022/01/23 05:05:14;;;;;;;11.43;4.00;;;;;;;2.00;54.01;93427.72;4983704;28;20510;-89
2022/01/23 05:08:00;;;;;;;11.75;2.42;;;;;;;1.96;54.13;93435.09;4988827;28;20097;-89
2022/01/23 05:10:46;;;;;;;5.88;2.40;;;;;;;1.76;54.55;93408.63;4999606;28;20410;-89
2022/01/23 05:13:47;;;;;;;6.32;2.65;;;;;;;1.58;54.25;93394.66;4984869;28;20096;-89
2022/01/23 05:16:20;;;;;;;6.03;2.63;;;;;;;1.85;53.86;93436.56;4997053;28;20487;-88
2022/01/23 05:18:56;;;;;;;8.63;3.00;;;;;;;1.58;54.81;93404.97;5013717;28;20081;-89
2022/01/23 05:24:13;;;;;;;24.55;7.38;;;;;;;1.86;56.17;93438.13;4997511;28;20042;-89
2022/01/23 05:26:46;;;;;;;19.77;6.70;;;;;;;1.67;56.08;93415.84;4996139;28;20018;-89
2022/01/23 05:29:33;;;;;;;13.07;5.30;;;;;;;1.77;56.19;93441.19;4996860;28;20281;-90
2022/01/23 05:32:14;;;;;;;11.95;4.28;;;;;;;1.53;56.29;93415.13;4997149;28;20479;-89
2022/01/23 05:34:44;;;;;;;11.77;3.93;;;;;;;1.19;56.00;93368.09;4981200;28;20029;-89
2022/01/23 05:37:20;;;;;;;11.10;4.88;;;;;;;1.25;55.75;93394.81;4979884;28;20046;-89
2022/01/23 05:40:04;;;;;;;23.35;7.68;;;;;;;1.28;57.50;93383.31;4994400;28;20033;-88
2022/01/23 05:42:48;;;;;;;;;;;;;;;;;;;;;
2022/01/23 05:45:22;;;;;;;23.60;9.07;;;;;;;1.61;57.68;93473.44;4998311;28;20034;-88
2022/01/23 05:48:04;;;;;;;24.35;9.13;;;;;;;1.03;57.60;93392.53;5000972;28;20037;-88
2022/01/23 05:50:51;;;;;;;23.48;8.95;;;;;;;1.27;58.21;93433.31;5000235;28;20037;-88
2022/01/23 05:53:50;;;;;;;22.03;8.87;;;;;;;1.42;58.02;93463.00;5005961;28;20096;-88
2022/01/23 05:56:52;;;;;;;20.58;7.43;;;;;;;1.20;58.04;93448.81;4985694;28;20068;-88
2022/01/23 05:59:41;;;;;;;21.73;7.38;;;;;;;1.06;57.84;93431.81;5000648;28;20041;-88
2022/01/23 06:02:10;;;;;;;17.58;7.35;;;;;;;0.80;57.99;93402.56;4973497;28;20047;-88
2022/01/23 06:04:48;;;;;;;22.30;7.95;;;;;;;1.04;57.86;93430.22;4984645;28;20467;-88
2022/01/23 06:07:37;;;;;;;24.88;8.07;;;;;;;1.19;57.34;93460.94;4994246;28;20360;-89
2022/01/23 06:10:15;;;;;;;25.13;9.90;;;;;;;1.34;58.25;93485.69;4991017;28;20041;-89
2022/01/23 06:12:42;;;;;;;23.75;9.68;;;;;;;1.03;58.21;93444.09;4978229;28;20482;-89
2022/01/23 06:15:13;;;;;;;25.65;9.35;;;;;;;0.83;58.40;93423.56;4995642;28;20029;-89
2022/01/23 06:17:45;;;;;;;24.90;9.27;;;;;;;1.04;58.00;93468.91;4976580;28;20119;-89
2022/01/23 06:20:40;;;;;;;21.90;9.32;;;;;;;1.10;58.45;93484.56;4968406;28;20117;-89
2022/01/23 06:23:30;;;;;;;22.80;9.25;;;;;;;0.62;58.76;93426.38;4979873;28;20086;-89
2022/01/23 06:26:19;;;;;;;29.35;9.20;;;;;;;0.89;58.62;93483.81;4991234;28;20084;-89
2022/01/23 06:29:01;;;;;;;24.48;9.35;;;;;;;0.54;58.91;93435.13;4991162;28;20030;-88
2022/01/23 06:31:47;;;;;;;;;;;;;;;;;;;;;
2022/01/23 06:34:25;;;;;;;31.08;11.30;;;;;;;0.52;59.21;93447.44;5009469;28;20037;-90
2022/01/23 06:36:56;;;;;;;30.73;11.95;;;;;;;0.49;59.36;93447.81;4977590;28;20053;-88
2022/01/23 06:39:31;;;;;;;29.05;11.82;;;;;;;0.41;59.91;93446.25;4985888;28;20475;-89
2022/01/23 06:42:11;;;;;;;23.48;10.68;;;;;;;0.31;60.08;93429.59;4994229;28;20497;-88
2022/01/23 06:45:18;;;;;;;28.75;11.77;;;;;;;0.65;60.18;93495.56;4943952;28;20492;-90
2022/01/23 06:47:54;;;;;;;26.42;10.85;;;;;;;0.35;59.45;93456.56;4981019;28;20368;-90
2022/01/23 06:50:24;;;;;;;28.75;11.00;;;;;;;0.64;59.07;93511.25;4982702;28;20037;-90
2022/01/23 06:52:59;;;;;;;33.13;11.38;;;;;;;0.39;58.69;93486.06;4994418;28;20463;-89
2022/01/23 06:55:43;;;;;;;27.15;11.38;;;;;;;0.48;58.58;93508.06;4996425;28;20101;-88
2022/01/23 06:58:22;;;;;;;25.92;10.40;;;;;;;0.17;58.56;93470.03;4967199;28;20056;-88
2022/01/23 07:00:52;;;;;;;24.83;10.40;;;;;;;0.32;58.79;93504.09;4989306;28;20061;-89
2022/01/23 07:03:32;;;;;;;26.38;11.18;;;;;;;0.30;58.98;93523.34;4994256;28;20128;-89
2022/01/23 07:06:29;;;;;;;27.90;11.00;;;;;;;-0.04;59.15;93484.66;4986220;28;20049;-89
2022/01/23 07:09:20;;;;;;;27.67;10.30;;;;;;;0.16;59.32;93531.03;4980701;28;20048;-89
2022/01/23 07:12:14;;;;;;;31.90;10.10;;;;;;;0.14;58.81;93538.16;4975453;28;20038;-89
2022/01/23 07:15:24;;;;;;;28.08;10.15;;;;;;;0.19;58.69;93537.59;4981773;28;20089;-89
2022/01/23 07:18:06;;;;;;;28.52;10.80;;;;;;;0.01;58.60;93511.63;5012744;28;20069;-90
2022/01/23 07:20:41;;;;;;;27.58;9.77;;;;;;;0.00;58.40;93523.69;4997700;28;20042;-89
2022/01/23 07:23:37;;;;;;;23.95;9.50;;;;;;;0.47;58.61;93591.50;4999345;28;20041;-90
2022/01/23 07:26:25;;;;;;;23.90;9.80;;;;;;;0.37;58.10;93567.91;4997583;28;20050;-90
2022/01/23 07:29:11;;;;;;;;;;;;;;;;;;;;;
2022/01/23 07:35:20;;;;;;;28.50;10.60;;;;;;;2.87;51.47;93542.31;4993902;28;20053;-90
2022/01/23 07:38:09;;;;;;;22.70;9.48;;;;;;;4.49;47.62;93551.38;5008072;28;20038;-85
2022/01/23 07:41:40;;;;;;;23.73;8.88;;;;;;;7.22;42.43;93547.81;5001763;28;20049;-90
2022/01/23 07:44:33;;;;;;;21.58;8.80;;;;;;;10.53;34.75;93565.69;5004524;28;20041;-90
2022/01/23 07:47:36;;;;;;;26.65;10.55;;;;;;;12.35;31.77;93545.78;4994810;28;20092;-89
2022/01/23 07:50:23;;;;;;;26.70;10.38;;;;;;;14.25;28.28;93595.78;4998860;28;20096;-89
2022/01/23 07:53:07;;;;;;;19.48;9.35;;;;;;;15.20;26.89;93541.25;4982949;28;20037;-92
2022/01/23 07:56:33;;;;;;;;;;;;;;;;;;;;;
2022/01/23 07:59:34;;;;;;;;;;;;;;;;;;;;;
2022/01/23 08:03:33;;;;;;;32.38;14.32;;;;;;;15.69;27.37;93605.06;5004478;28;20454;-91
2022/01/23 08:06:12;;;;;;;32.90;15.30;;;;;;;16.95;25.00;93606.66;4997462;28;20044;-91
2022/01/23 08:09:00;;;;;;;33.05;15.63;;;;;;;17.65;24.40;93592.06;5000191;28;20042;-92
2022/01/23 08:12:06;;;;;;;40.28;16.52;;;;;;;19.31;22.72;93543.69;4997819;28;20104;-93
2022/01/23 08:15:15;;;;;;;32.95;14.80;;;;;;;20.68;20.82;93551.81;5001269;28;20101;-92
2022/01/23 08:22:11;;;;;;;;;;;;;;;;;;;;;
2022/01/23 08:36:05;;;;;;;32.55;16.15;;;;;;;15.93;26.48;93602.31;4989274;28;20124;-92
2022/01/23 08:42:44;;;;;;;;;;;;;;;;;;;;;
2022/01/23 08:52:42;;;;;;;32.22;14.13;;;;;;;5.75;43.57;93581.44;4948389;28;20041;-90
2022/01/23 08:55:57;;;;;;;;;;;;;;;;;;;;;
2022/01/23 08:59:03;;;;;;;32.53;14.50;;;;;;;5.90;44.87;93651.91;5035803;28;20032;-91
2022/01/23 09:05:51;;;;;;;36.88;14.43;;;;;;;5.91;45.03;93617.09;4942702;29;20083;-91
2022/01/23 09:09:31;;;;;;;;;;;;;;;;;;;;;
2022/01/23 09:12:40;;;;;;;30.65;13.65;;;;;;;5.97;45.45;93590.22;4915119;29;20166;-90
2022/01/23 09:16:16;;;;;;;27.08;12.48;;;;;;;6.22;45.40;93615.91;4914408;29;20036;-91
2022/01/23 09:19:17;;;;;;;30.58;12.38;;;;;;;5.84;43.05;93567.06;4922553;29;20071;-91
2022/01/23 09:22:16;;;;;;;;;;;;;;;;;;;;;
2022/01/23 09:25:09;;;;;;;32.80;12.25;;;;;;;5.82;41.87;93603.66;5001177;28;20034;-91
2022/01/23 09:27:45;;;;;;;32.67;12.20;;;;;;;5.71;42.23;93585.50;5003010;28;20532;-91
2022/01/23 09:30:49;;;;;;;;;;;;;;;;;;;;;
2022/01/23 09:33:33;;;;;;;35.05;12.10;;;;;;;6.44;39.85;93618.69;5008248;28;20052;-90
2022/01/23 09:36:44;;;;;;;26.95;10.55;;;;;;;5.88;39.84;93572.56;5004088;28;20040;-91
2022/01/23 09:39:46;;;;;;;29.33;11.23;;;;;;;5.80;40.13;93590.09;5002354;28;20036;-92
2022/01/23 09:46:23;;;;;;;36.17;11.25;;;;;;;5.15;42.16;93604.03;4975676;28;20042;-90
2022/01/23 09:49:20;;;;;;;32.92;11.98;;;;;;;5.40;43.30;93623.81;4986054;28;20041;-91
2022/01/23 09:52:09;;;;;;;;;;;;;;;;;;;;;
2022/01/23 09:55:07;;;;;;;;;;;;;;;;;;;;;
2022/01/23 09:58:14;;;;;;;29.80;11.02;;;;;;;5.80;42.37;93603.09;4999906;28;20116;-91
2022/01/23 10:01:22;;;;;;;;;;;;;;;;;;;;;
2022/01/23 10:07:11;;;;;;;32.60;11.38;;;;;;;5.85;43.52;93576.41;4996490;28;20042;-91
2022/01/23 10:13:50;;;;;;;;;;;;;;;;;;;;;
2022/01/23 10:16:52;;;;;;;;;;;;;;;;;;;;;
2022/01/23 10:23:26;;;;;;;35.58;13.30;;;;;;;6.55;43.35;93637.88;4965991;28;20440;-91
2022/01/23 10:27:09;;;;;;;27.33;11.18;;;;;;;6.82;41.98;93622.47;4987443;28;20050;-91
2022/01/23 10:30:58;;;;;;;;;;;;;;;;;;;;;
2022/01/23 10:33:51;;;;;;;;;;;;;;;;;;;;;
2022/01/23 10:36:57;;;;;;;29.08;10.73;;;;;;;7.17;38.89;93618.84;4995966;28;20062;-91
2022/01/23 10:40:11;;;;;;;32.17;12.07;;;;;;;7.42;38.45;93574.16;4996100;28;20034;-91
2022/01/23 10:48:45;;;;;;;20.38;8.13;;;;;;;6.17;43.73;93662.63;5013455;28;20040;-88
2022/01/23 10:51:39;;;;;;;24.88;10.05;;;;;;;5.09;48.05;93625.72;4988861;28;20034;-89
2022/01/23 10:54:24;;;;;;;41.75;16.25;;;;;;;5.11;48.02;93576.97;4994823;28;20090;-89
2022/01/23 10:57:02;;;;;;;37.60;15.45;;;;;;;5.94;47.15;93637.44;4980604;28;20116;-89
2022/01/23 10:59:53;;;;;;;39.30;13.85;;;;;;;6.37;43.72;93602.41;4996045;28;20046;-89
2022/01/23 11:02:38;;;;;;;;;;;;;;;;;;;;;
2022/01/23 11:05:41;;;;;;;21.05;7.35;;;;;;;7.32;36.03;93600.06;4999574;28;20049;-90
2022/01/23 11:08:30;;;;;;;23.20;6.13;;;;;;;7.92;35.81;93635.81;4979691;28;20085;-90
2022/01/23 11:11:05;;;;;;;24.85;9.13;;;;;;;7.48;36.62;93570.59;4991511;28;20105;-90
2022/01/23 11:19:24;;;;;;;34.28;12.57;;;;;;;7.85;39.72;93650.81;4993260;28;20044;-89
2022/01/23 11:22:06;;;;;;;20.15;9.27;;;;;;;7.21;37.70;93651.22;4976196;28;20032;-90
2022/01/23 11:24:47;;;;;;;26.63;8.73;;;;;;;8.23;35.14;93653.66;4992446;28;20098;-89
2022/01/23 11:27:27;;;;;;;;;;;;;;;;;;;;;
2022/01/23 11:33:14;;;;;;;;;;;;;;;9.98;32.40;93646.34;5003334;28;20368;-89
2022/01/23 11:36:33;;;;;;;26.90;10.23;;;;;;;9.26;34.92;93643.25;4989463;28;19981;-89
2022/01/23 11:39:19;;;;;;;;;;;;;;;;;;;;;
2022/01/23 11:54:28;;;;;;;16.38;6.97;;;;;;;8.29;36.00;93621.41;5009629;28;20443;-90
2022/01/23 12:33:41;;;;;;;34.92;13.55;;;;;;;7.39;41.21;93597.31;5099385;27;20121;-70
2022/01/23 12:36:29;;;;;;;28.45;11.10;;;;;;;7.74;40.95;93588.38;5049744;28;20119;-71
2022/01/23 12:39:06;;;;;;;26.23;10.13;;;;;;;7.80;39.56;93572.56;5067716;28;20390;-71
2022/01/23 12:41:37;;;;;;;34.53;12.90;;;;;;;7.98;39.28;93581.91;5076643;28;20024;-71
2022/01/23 12:44:06;;;;;;;32.70;11.65;;;;;;;8.05;40.11;93587.72;5059709;28;20067;-70
2022/01/23 12:46:47;;;;;;;31.38;11.18;;;;;;;8.45;38.44;93576.19;5078208;28;20024;-70
2022/01/23 12:49:22;;;;;;;25.80;8.63;;;;;;;7.78;39.26;93582.44;5068006;28;20036;-70
2022/01/23 12:51:50;;;;;;;22.52;7.63;;;;;;;7.53;40.41;93577.69;5081065;28;20039;-69
2022/01/23 12:54:19;;;;;;;28.40;11.30;;;;;;;8.31;38.95;93577.59;5085810;28;20533;-70
2022/01/23 12:56:46;;;;;;;30.65;11.55;;;;;;;8.99;37.41;93570.16;5068779;28;20078;-71
2022/01/23 12:59:24;;;;;;;23.08;9.55;;;;;;;9.05;35.71;93556.09;5066926;28;20039;-71
2022/01/23 13:01:56;;;;;;;29.63;10.10;;;;;;;9.21;34.04;93550.97;5050742;28;20073;-71
2022/01/23 13:04:23;;;;;;;27.90;9.88;;;;;;;9.50;34.09;93546.19;5065467;28;20064;-70
2022/01/23 13:06:59;;;;;;;22.02;8.45;;;;;;;9.10;36.10;93548.28;5067081;28;20481;-70
2022/01/23 13:14:46;;;;;;;22.55;8.75;;;;;;;7.87;38.22;93546.31;5084442;28;20497;-72
2022/01/23 13:17:27;;;;;;;24.65;9.05;;;;;;;7.64;38.90;93549.94;5068017;28;20028;-72
2022/01/23 13:26:23;;;;;;;29.08;10.50;;;;;;;7.79;38.50;93547.53;5086611;28;20032;-72
2022/01/23 13:29:07;;;;;;;26.40;9.88;;;;;;;8.09;38.20;93541.88;5063345;28;20055;-70
2022/01/23 13:31:08;;;;;;;28.42;10.85;;;;;;;8.46;36.07;93535.22;5054400;28;20043;-69
2022/01/23 13:33:37;;;;;;;;;;;;;;;8.31;36.92;93538.47;5053190;28;20052;-70
2022/01/23 13:36:07;;;;;;;32.88;10.65;;;;;;;8.63;37.11;93541.13;5068604;28;20288;-72
2022/01/23 13:38:34;;;;;;;25.80;10.52;;;;;;;9.34;35.39;93527.81;5079799;28;20036;-71
2022/01/23 13:41:09;;;;;;;23.77;9.43;;;;;;;9.65;34.14;93529.78;5063754;28;20025;-71
2022/01/23 13:52:43;;;;;;;31.58;10.57;;;;;;;8.44;36.65;93521.63;5029111;28;20156;-72
2022/01/23 13:58:20;;;;;;;33.58;10.65;;;;;;;8.21;37.02;93522.69;5058915;28;20492;-72
2022/01/23 14:00:39;;;;;;;29.17;10.48;;;;;;;8.58;36.37;93511.56;5052149;28;20041;-72
2022/01/23 14:03:05;;;;;;;28.25;10.27;;;;;;;8.68;36.40;93506.44;5060812;28;20413;-72
2022/01/23 14:05:32;;;;;;;27.45;10.57;;;;;;;9.40;34.41;93517.38;5053501;28;20037;-71
2022/01/23 14:08:03;;;;;;;32.53;11.13;;;;;;;9.22;35.41;93513.38;5055987;28;20078;-71
2022/01/23 14:10:33;;;;;;;32.30;11.30;;;;;;;8.86;35.92;93513.91;5052676;28;20507;-71
2022/01/23 14:13:19;;;;;;;34.42;11.63;;;;;;;8.73;36.71;93511.69;5067142;28;20029;-71
2022/01/23 14:15:50;;;;;;;29.58;10.68;;;;;;;8.86;36.54;93511.28;5053545;28;20029;-71
2022/01/23 14:18:27;;;;;;;22.20;8.65;;;;;;;8.80;36.12;93507.06;5066089;28;20081;-71
2022/01/23 14:21:04;;;;;;;25.65;10.55;;;;;;;8.95;36.63;93512.41;5044222;28;20405;-71
2022/01/23 14:23:31;;;;;;;27.00;9.68;;;;;;;8.44;36.67;93511.97;5063821;28;20048;-71
2022/01/23 14:26:00;;;;;;;32.35;11.20;;;;;;;8.36;37.15;93511.63;5054745;28;20119;-71
2022/01/23 14:28:37;;;;;;;27.38;10.23;;;;;;;8.32;37.13;93503.50;5054097;28;20032;-71
2022/01/23 14:31:18;;;;;;;32.83;12.13;;;;;;;8.39;36.96;93509.28;5066049;28;20025;-71
2022/01/23 14:33:47;;;;;;;32.92;11.23;;;;;;;8.41;36.47;93506.47;5052908;28;20102;-71
2022/01/23 14:36:28;;;;;;;34.22;11.75;;;;;;;8.51;35.98;93506.56;5056049;28;20380;-71
2022/01/23 14:39:09;;;;;;;32.55;9.80;;;;;;;8.84;35.36;93509.97;5017537;28;20037;-71
2022/01/23 14:41:40;;;;;;;26.20;10.43;;;;;;;8.74;35.41;93497.63;5071277;28;20325;-71
2022/01/23 14:44:24;;;;;;;28.10;10.35;;;;;;;8.99;35.35;93496.25;5043042;28;20565;-71
2022/01/23 14:46:52;;;;;;;29.10;10.65;;;;;;;9.11;34.64;93496.84;5042075;28;20503;-71
2022/01/23 14:49:24;;;;;;;28.88;9.77;;;;;;;9.16;34.74;93499.47;5070543;28;20032;-71
2022/01/23 14:51:52;;;;;;;31.55;9.73;;;;;;;9.15;34.90;93503.91;5052859;28;20498;-72
2022/01/23 14:54:20;;;;;;;27.15;10.00;;;;;;;9.09;35.00;93494.47;5061262;28;20031;-70
2022/01/23 14:56:46;;;;;;;29.23;10.18;;;;;;;9.19;34.46;93496.38;5053049;28;20111;-71
2022/01/23 14:59:13;;;;;;;27.38;9.48;;;;;;;8.57;35.75;93497.75;5053220;28;20029;-72
2022/01/23 15:01:41;;;;;;;26.88;9.13;;;;;;;8.41;36.38;93496.03;5052743;28;20040;-72
2022/01/23 15:04:09;;;;;;;24.00;8.90;;;;;;;7.87;37.71;93502.00;5061037;28;20505;-72
2022/01/23 15:06:36;;;;;;;26.90;10.52;;;;;;;7.49;37.97;93501.03;5059471;28;20029;-71
2022/01/23 15:09:13;;;;;;;28.45;9.95;;;;;;;7.70;37.60;93500.25;5054730;28;20108;-72
2022/01/23 15:11:38;;;;;;;29.00;10.50;;;;;;;7.64;37.58;93503.03;5060270;28;20055;-73
2022/01/23 15:14:06;;;;;;;27.83;10.43;;;;;;;7.79;37.00;93511.03;5040017;28;20032;-73
2022/01/23 15:16:31;;;;;;;24.08;9.45;;;;;;;7.66;37.42;93506.97;5070971;28;20375;-72
2022/01/23 15:18:57;;;;;;;25.02;10.15;;;;;;;7.78;37.19;93503.47;5061849;28;20039;-74
2022/01/23 15:21:23;;;;;;;28.55;10.50;;;;;;;7.71;37.13;93506.25;5027321;28;20111;-73
2022/01/23 15:23:55;;;;;;;34.55;11.60;;;;;;;7.39;37.57;93506.13;5045022;28;20106;-72
2022/01/23 15:26:21;;;;;;;33.15;11.25;;;;;;;6.96;38.76;93498.00;5054866;28;20045;-72
2022/01/23 15:28:47;;;;;;;29.02;10.38;;;;;;;6.64;39.44;93502.97;5056431;28;20024;-72
2022/01/23 15:31:13;;;;;;;32.33;11.05;;;;;;;6.56;40.50;93514.56;5039240;28;20032;-72
2022/01/23 15:33:38;;;;;;;33.72;12.05;;;;;;;6.46;41.57;93504.78;5051228;28;20490;-72
2022/01/23 15:36:04;;;;;;;35.33;12.10;;;;;;;6.35;42.17;93497.03;5065728;28;20040;-72
2022/01/23 15:38:30;;;;;;;31.52;10.52;;;;;;;6.20;42.55;93494.97;5058939;28;20029;-71
2022/01/23 15:40:56;;;;;;;34.22;10.07;;;;;;;6.09;42.93;93504.41;5062010;28;20509;-72
2022/01/23 15:43:21;;;;;;;28.85;10.27;;;;;;;6.00;42.96;93503.19;5052622;28;20116;-72
2022/01/23 15:45:47;;;;;;;28.70;10.75;;;;;;;5.93;43.25;93495.50;5066490;28;20048;-72
2022/01/23 15:48:13;;;;;;;34.65;10.35;;;;;;;5.77;43.79;93501.44;5071044;28;20036;-72
2022/01/23 15:50:39;;;;;;;30.23;10.48;;;;;;;5.57;43.95;93497.44;5057546;28;20041;-72
2022/01/23 15:53:05;;;;;;;26.15;10.40;;;;;;;5.39;44.50;93508.75;5059754;28;20043;-72
2022/01/23 15:55:31;;;;;;;32.60;10.93;;;;;;;5.25;44.70;93507.44;5057278;28;20502;-72
2022/01/23 15:57:57;;;;;;;29.17;10.48;;;;;;;5.22;44.92;93508.69;5053038;28;20454;-72
2022/01/23 16:00:24;;;;;;;33.83;10.80;;;;;;;5.11;45.13;93509.50;5058483;28;20040;-72
2022/01/23 16:02:50;;;;;;;31.48;11.52;;;;;;;5.09;45.13;93511.53;5062585;28;20484;-72
2022/01/23 16:05:18;;;;;;;32.88;10.95;;;;;;;5.05;45.88;93512.19;5064900;28;20085;-72
2022/01/23 16:07:44;;;;;;;33.70;11.98;;;;;;;4.91;46.46;93514.22;5062065;28;20036;-72
2022/01/23 16:10:11;;;;;;;33.47;11.75;;;;;;;4.75;46.67;93510.47;5061539;28;20036;-72
2022/01/23 16:12:41;;;;;;;29.27;10.95;;;;;;;4.69;46.85;93514.00;5062788;28;20388;-73
2022/01/23 16:15:12;;;;;;;31.45;10.13;;;;;;;4.52;46.94;93516.44;5053481;28;20041;-72
2022/01/23 16:17:38;;;;;;;23.98;10.10;;;;;;;4.33;47.17;93526.88;5059926;28;20048;-74
2022/01/23 16:20:05;;;;;;;34.75;13.10;;;;;;;4.25;47.68;93522.00;5063932;28;20571;-73
2022/01/23 16:22:31;;;;;;;42.17;13.77;;;;;;;4.10;48.42;93519.84;5066268;28;20040;-73
2022/01/23 16:24:57;;;;;;;30.23;11.90;;;;;;;3.95;48.89;93519.44;5061347;28;20032;-73
2022/01/23 16:27:22;;;;;;;39.17;12.65;;;;;;;3.85;48.90;93522.56;5063768;28;20032;-73
2022/01/23 16:29:48;;;;;;;32.70;11.95;;;;;;;3.78;49.41;93537.38;5069621;28;20032;-72
2022/01/23 16:32:13;;;;;;;29.85;10.88;;;;;;;3.62;50.31;93527.63;5065356;28;20051;-73
2022/01/23 16:34:39;;;;;;;25.42;10.50;;;;;;;3.52;50.89;93530.72;5060299;28;20032;-73
2022/01/23 16:37:05;;;;;;;30.80;11.75;;;;;;;3.44;50.95;93525.84;5063225;28;20077;-73
2022/01/23 16:39:30;;;;;;;35.20;13.43;;;;;;;3.37;51.02;93525.13;5057390;28;20051;-73
2022/01/23 16:41:56;;;;;;;35.42;13.02;;;;;;;3.32;50.80;93526.56;5067882;28;20116;-73
2022/01/23 16:44:24;;;;;;;39.63;14.43;;;;;;;3.24;50.82;93528.63;5068527;28;20107;-73
2022/01/23 16:46:51;;;;;;;37.97;14.25;;;;;;;3.16;51.20;93523.75;5060574;28;20036;-74
2022/01/23 16:49:17;;;;;;;34.45;14.90;;;;;;;3.09;51.14;93524.59;5048172;28;20036;-73
2022/01/23 16:51:43;;;;;;;42.35;16.35;;;;;;;3.02;50.84;93523.88;5051461;28;20130;-73
2022/01/23 16:54:12;;;;;;;33.08;13.95;;;;;;;2.89;50.90;93524.00;5059689;28;20575;-73
2022/01/23 16:56:39;;;;;;;30.65;11.77;;;;;;;2.86;50.93;93534.75;5067413;28;20036;-73
2022/01/23 16:59:07;;;;;;;29.63;10.68;;;;;;;2.82;51.24;93526.66;5051875;28;20041;-74
2022/01/23 17:01:33;;;;;;;32.15;11.75;;;;;;;2.75;51.61;93530.28;5063620;28;20081;-74
2022/01/23 17:03:59;;;;;;;30.80;11.70;;;;;;;2.67;51.78;93529.56;5063882;28;20465;-73
2022/01/23 17:06:30;;;;;;;32.85;13.10;;;;;;;2.60;51.44;93528.81;5067598;28;20044;-74
2022/01/23 17:08:56;;;;;;;34.05;13.45;;;;;;;2.57;52.00;93529.25;5062567;28;20037;-74
2022/01/23 17:11:22;;;;;;;33.10;12.45;;;;;;;2.50;52.45;93518.97;5059311;28;20056;-74
2022/01/23 17:13:48;;;;;;;34.83;11.48;;;;;;;2.48;52.45;93527.94;5052060;28;20032;-73
2022/01/23 17:16:16;;;;;;;28.70;9.05;;;;;;;2.42;52.92;93526.19;5058640;28;20032;-73
2022/01/23 17:18:42;;;;;;;28.90;9.30;;;;;;;2.38;52.66;93525.81;5049774;28;20063;-74
2022/01/23 17:21:08;;;;;;;30.85;10.63;;;;;;;2.34;53.37;93523.84;5072567;28;20028;-74
2022/01/23 17:23:35;;;;;;;28.75;9.60;;;;;;;2.29;53.52;93519.31;5064816;28;20033;-74
2022/01/23 17:26:01;;;;;;;32.83;11.13;;;;;;;2.20;53.47;93523.16;5062970;28;20037;-73
2022/01/23 17:28:28;;;;;;;26.77;9.30;;;;;;;2.10;53.33;93526.19;5054039;28;20028;-73
2022/01/23 17:30:53;;;;;;;30.55;10.10;;;;;;;2.06;53.81;93525.81;5072593;28;20078;-73
2022/01/23 17:33:19;;;;;;;24.77;8.18;;;;;;;2.01;53.77;93525.66;5076370;28;20057;-73
2022/01/23 17:35:45;;;;;;;33.10;10.07;;;;;;;1.95;53.88;93523.09;5057479;28;20033;-73
2022/01/23 17:38:12;;;;;;;28.63;9.98;;;;;;;1.92;54.08;93518.38;5060580;28;20033;-76